Terminal Aerodrome Forecast
Issued by NWS

Home | Current Version | Previous Version | Text Only | Print | Product List | Glossary On
Versions: 1 2 3 4 5 6 7 8 9 10 11 12 13 14 15 16 17 18 19 20 21 22 23 24 25 26 27
000
FTUS41 KCAR 160800 AAA
TAFBHB
TAF AMD
KBHB 160808Z 1608/1706 33008G16KT 6SM -RASN BR OVC015
      TEMPO 1608/1610 3SM -SN BR OVC010
     FM161000 32012G22KT P6SM VCSH OVC015
     FM161400 32020G28KT P6SM SCT050
     FM161500 32020G28KT P6SM SCT250
     FM162200 31011G19KT P6SM SKC
      AMD LTD TO CLD VIS AND WIND=

USA.gov is the U.S. government's official web portal to all federal, state and local government web resources and services.